Time;durP1;ratioP1;P1;durP2;ratioP2;P2;SDS_P1;SDS_P2;PMS_P1;PMS_P2;Temp;Humidity;BMP_temperature;BMP_pressure;BME280_temperature;BME280_humidity;BME280_pressure;Samples;Min_cycle;Max_cycle;Signal;HPM_P1;HPM_P2
2021/10/15 00:00:18;;;;;;;18.03;9.20;;;;;;;13.01;100.00;101608.06;5095142;28;20032;-51
2021/10/15 00:02:43;;;;;;;16.00;8.68;;;;;;;12.90;100.00;101606.75;5094654;28;20124;-51
2021/10/15 00:05:09;;;;;;;25.13;9.40;;;;;;;12.95;100.00;101600.81;5076076;28;20038;-53
2021/10/15 00:07:35;;;;;;;13.82;8.23;;;;;;;12.91;100.00;101607.56;5094352;28;20048;-51
2021/10/15 00:10:01;;;;;;;17.48;9.13;;;;;;;12.85;100.00;101593.06;5094896;28;20050;-50
2021/10/15 00:12:26;;;;;;;29.77;9.77;;;;;;;12.85;100.00;101600.28;5094693;28;20418;-51
2021/10/15 00:14:52;;;;;;;19.57;8.80;;;;;;;12.71;100.00;101593.94;5094090;28;20040;-52
2021/10/15 00:17:17;;;;;;;23.50;8.50;;;;;;;12.72;100.00;101592.94;5094263;28;20024;-50
2021/10/15 00:19:43;;;;;;;19.17;8.90;;;;;;;12.77;100.00;101593.19;5094397;28;20290;-54
2021/10/15 00:22:09;;;;;;;19.35;8.75;;;;;;;12.70;100.00;101597.66;5092847;28;20066;-50
2021/10/15 00:24:34;;;;;;;16.38;8.05;;;;;;;12.61;100.00;101592.41;5094256;28;20097;-54
2021/10/15 00:27:00;;;;;;;14.98;8.85;;;;;;;12.68;100.00;101587.09;5094344;28;20059;-54
2021/10/15 00:29:25;;;;;;;16.90;9.23;;;;;;;12.66;100.00;101581.09;5092574;28;20062;-50
2021/10/15 00:31:51;;;;;;;19.93;10.03;;;;;;;12.65;100.00;101570.56;5092579;28;20340;-53
2021/10/15 00:34:16;;;;;;;16.67;9.73;;;;;;;12.64;100.00;101561.66;5093940;28;20044;-53
2021/10/15 00:36:42;;;;;;;15.77;9.53;;;;;;;12.67;100.00;101573.88;5092099;28;20028;-52
2021/10/15 00:39:07;;;;;;;19.50;10.03;;;;;;;12.60;100.00;101563.09;5092630;28;20587;-52
2021/10/15 00:41:33;;;;;;;14.53;9.37;;;;;;;12.59;100.00;101582.88;5093678;28;20036;-53
2021/10/15 00:44:06;;;;;;;19.73;10.25;;;;;;;12.64;100.00;101564.34;5093791;28;20043;-50
2021/10/15 00:46:33;;;;;;;19.80;10.37;;;;;;;12.59;100.00;101545.31;5093509;28;20058;-53
2021/10/15 00:49:00;;;;;;;21.33;10.20;;;;;;;12.60;100.00;101542.47;5092240;28;20273;-54
2021/10/15 00:51:25;;;;;;;18.30;10.03;;;;;;;12.61;100.00;101536.06;5093805;28;20264;-51
2021/10/15 00:53:51;;;;;;;14.77;9.20;;;;;;;12.65;100.00;101533.81;5093693;28;20272;-51
2021/10/15 00:56:17;;;;;;;18.10;9.30;;;;;;;12.68;100.00;101536.09;5092866;28;20031;-54
2021/10/15 00:58:42;;;;;;;19.17;9.30;;;;;;;12.65;100.00;101544.56;5093375;28;20116;-50
2021/10/15 01:01:08;;;;;;;17.47;9.57;;;;;;;12.67;100.00;101542.50;5094480;28;20035;-55
2021/10/15 01:03:34;;;;;;;18.77;10.63;;;;;;;12.68;100.00;101536.09;5092512;28;20043;-50
2021/10/15 01:06:00;;;;;;;;;;;;;;;12.75;100.00;101525.44;5093276;28;20036;-51
2021/10/15 01:08:25;;;;;;;21.30;9.33;;;;;;;12.72;100.00;101537.41;5093278;28;19977;-48
2021/10/15 01:10:51;;;;;;;16.33;8.00;;;;;;;12.66;100.00;101534.66;5092024;28;20418;-50
2021/10/15 01:13:19;;;;;;;16.03;9.23;;;;;;;12.71;100.00;101526.84;5091842;28;20036;-50
2021/10/15 01:15:44;;;;;;;17.42;9.15;;;;;;;12.80;100.00;101540.97;5092868;28;20741;-52
2021/10/15 01:18:13;;;;;;;14.93;9.13;;;;;;;12.77;100.00;101526.91;5092916;28;20123;-51
2021/10/15 01:20:41;;;;;;;15.43;8.33;;;;;;;12.68;100.00;101517.31;5091501;28;20336;-49
2021/10/15 01:23:06;;;;;;;19.93;9.17;;;;;;;12.68;100.00;101527.25;5091624;28;20269;-49
2021/10/15 01:25:34;;;;;;;14.13;7.93;;;;;;;12.74;100.00;101529.16;5093052;28;20266;-52
2021/10/15 01:28:00;;;;;;;18.37;9.47;;;;;;;12.74;100.00;101518.41;5093351;28;20039;-53
2021/10/15 01:30:26;;;;;;;20.92;9.40;;;;;;;12.71;100.00;101511.59;5093034;28;20270;-50
2021/10/15 01:32:51;;;;;;;19.17;9.88;;;;;;;12.77;100.00;101521.56;5091467;28;20499;-50
2021/10/15 01:35:17;;;;;;;15.85;9.07;;;;;;;12.73;100.00;101506.88;5074592;28;20040;-49
2021/10/15 01:37:42;;;;;;;21.20;9.38;;;;;;;12.71;100.00;101516.97;5091461;28;20055;-49
2021/10/15 01:40:10;;;;;;;15.55;9.32;;;;;;;12.73;100.00;101509.56;5091716;28;20132;-51
2021/10/15 01:42:54;;;;;;;22.77;9.70;;;;;;;12.67;100.00;101502.25;5092782;28;20035;-52
2021/10/15 01:45:24;;;;;;;20.10;9.80;;;;;;;12.67;100.00;101515.66;5092923;28;20685;-53
2021/10/15 01:47:50;;;;;;;16.40;9.93;;;;;;;12.68;100.00;101506.59;5093445;28;20321;-50
2021/10/15 01:50:16;;;;;;;18.10;9.98;;;;;;;12.67;100.00;101504.94;5074672;28;20273;-49
2021/10/15 01:52:41;;;;;;;18.20;10.40;;;;;;;12.70;100.00;101509.94;5093465;28;20047;-49
2021/10/15 01:55:08;;;;;;;21.65;9.93;;;;;;;12.69;100.00;101507.44;5092570;28;20054;-50
2021/10/15 01:57:35;;;;;;;16.90;8.87;;;;;;;12.70;100.00;101496.53;5091216;28;20454;-52
2021/10/15 02:00:00;;;;;;;19.20;9.30;;;;;;;12.61;100.00;101494.97;5092465;28;20351;-50
2021/10/15 02:02:26;;;;;;;20.85;9.52;;;;;;;12.67;100.00;101493.38;5074513;28;20591;-50
2021/10/15 02:04:52;;;;;;;21.77;9.53;;;;;;;12.60;100.00;101487.94;5074333;28;20032;-50
2021/10/15 02:07:18;;;;;;;14.68;9.65;;;;;;;12.57;100.00;101482.97;5093996;28;20252;-51
2021/10/15 02:09:44;;;;;;;;;;;;;;;12.55;100.00;101479.66;5097114;28;20039;-50
2021/10/15 02:12:09;;;;;;;23.93;10.07;;;;;;;12.55;100.00;101482.34;5096890;28;19916;-52
2021/10/15 02:14:35;;;;;;;16.03;9.80;;;;;;;12.57;100.00;101469.56;5096674;28;20027;-53
2021/10/15 02:17:00;;;;;;;22.27;9.93;;;;;;;12.52;100.00;101462.09;5096257;28;20268;-53
2021/10/15 02:19:26;;;;;;;16.38;9.50;;;;;;;12.56;100.00;101468.72;5096554;28;20035;-54
2021/10/15 02:21:52;;;;;;;21.05;9.45;;;;;;;12.45;100.00;101459.34;5094903;28;20036;-54
2021/10/15 02:24:18;;;;;;;25.00;11.05;;;;;;;12.47;100.00;101473.41;5096942;28;20111;-52
2021/10/15 02:26:43;;;;;;;17.00;9.07;;;;;;;12.48;100.00;101463.50;5096870;28;20032;-51
2021/10/15 02:29:27;;;;;;;12.90;8.57;;;;;;;12.50;100.00;101460.63;5096117;28;20137;-51
2021/10/15 02:31:53;;;;;;;21.23;10.05;;;;;;;12.50;100.00;101463.31;5094955;28;20355;-55
2021/10/15 02:34:19;;;;;;;21.53;10.63;;;;;;;12.42;100.00;101451.69;5095290;28;20032;-53
2021/10/15 02:36:45;;;;;;;19.02;9.27;;;;;;;12.42;100.00;101443.63;5094915;28;20071;-53
2021/10/15 02:39:11;;;;;;;15.70;8.82;;;;;;;12.37;100.00;101434.53;5096049;28;20086;-51
2021/10/15 02:41:39;;;;;;;19.92;9.27;;;;;;;12.36;100.00;101417.59;5095693;28;20036;-52
2021/10/15 02:44:07;;;;;;;17.03;8.80;;;;;;;12.36;100.00;101431.00;5094571;28;20043;-52
2021/10/15 02:46:32;;;;;;;19.60;9.90;;;;;;;12.40;100.00;101424.22;5095885;28;20288;-51
2021/10/15 02:48:58;;;;;;;24.30;9.85;;;;;;;12.40;100.00;101432.25;5095925;28;20317;-50
2021/10/15 02:51:23;;;;;;;13.30;8.60;;;;;;;12.42;100.00;101440.94;5095584;28;20039;-55
2021/10/15 02:53:49;;;;;;;20.73;10.30;;;;;;;12.40;100.00;101426.91;5095502;28;20039;-54
2021/10/15 02:56:14;;;;;;;15.23;8.80;;;;;;;12.45;100.00;101415.59;5096043;28;20271;-56
2021/10/15 02:58:40;;;;;;;15.47;8.63;;;;;;;12.32;100.00;101410.94;5095981;28;20020;-52
2021/10/15 03:01:05;;;;;;;15.63;9.23;;;;;;;12.33;100.00;101412.63;5096702;28;20130;-53
2021/10/15 03:03:31;;;;;;;15.53;10.10;;;;;;;12.38;100.00;101412.84;5096334;28;20298;-54
2021/10/15 03:05:57;;;;;;;19.85;9.27;;;;;;;12.38;100.00;101410.16;5094450;28;20032;-55
2021/10/15 03:08:22;;;;;;;16.92;9.98;;;;;;;12.30;100.00;101408.44;5095616;28;20365;-49
2021/10/15 03:10:48;;;;;;;18.80;10.15;;;;;;;12.26;100.00;101411.72;5095318;28;20032;-51
2021/10/15 03:13:13;;;;;;;23.50;9.83;;;;;;;12.26;100.00;101404.50;5094432;28;20039;-48
2021/10/15 03:15:39;;;;;;;23.70;10.48;;;;;;;12.24;100.00;101392.31;5094128;28;20028;-54
2021/10/15 03:18:06;;;;;;;18.23;10.30;;;;;;;12.35;100.00;101404.38;5095734;28;20096;-49
2021/10/15 03:20:31;;;;;;;21.87;10.03;;;;;;;12.25;100.00;101408.22;5094391;28;20036;-51
2021/10/15 03:22:57;;;;;;;18.40;9.57;;;;;;;12.27;100.00;101391.94;5093730;28;20410;-56
2021/10/15 03:25:22;;;;;;;22.80;10.15;;;;;;;12.23;100.00;101404.06;5093813;28;20039;-53
2021/10/15 03:27:48;;;;;;;22.08;10.82;;;;;;;12.25;100.00;101380.56;5095226;28;20089;-54
2021/10/15 03:30:14;;;;;;;17.15;9.95;;;;;;;12.23;100.00;101383.44;5093902;28;20550;-49
2021/10/15 03:32:40;;;;;;;18.50;9.50;;;;;;;12.26;100.00;101379.56;5093696;28;20336;-50
2021/10/15 03:35:06;;;;;;;18.13;10.75;;;;;;;12.23;100.00;101386.13;5095123;28;20358;-53
2021/10/15 03:37:32;;;;;;;;;;;;;;;12.33;100.00;101385.78;5093934;28;20115;-54
2021/10/15 03:39:57;;;;;;;18.37;10.17;;;;;;;12.29;100.00;101387.22;5094758;28;20402;-54
2021/10/15 03:42:23;;;;;;;25.30;10.70;;;;;;;12.32;100.00;101392.19;5094779;28;20535;-53
2021/10/15 03:44:48;;;;;;;22.45;10.70;;;;;;;12.26;100.00;101385.72;5094815;28;20039;-49
2021/10/15 03:47:14;;;;;;;21.87;11.17;;;;;;;12.29;100.00;101379.16;5093616;28;20457;-51
2021/10/15 03:49:39;;;;;;;18.53;10.10;;;;;;;12.26;100.00;101380.38;5095166;28;20030;-51
2021/10/15 03:52:05;;;;;;;20.42;10.48;;;;;;;12.22;100.00;101383.63;5094391;28;20028;-54
2021/10/15 03:54:31;;;;;;;23.10;10.82;;;;;;;12.24;100.00;101378.91;5094739;28;20051;-54
2021/10/15 03:56:56;;;;;;;18.30;10.83;;;;;;;12.26;100.00;101379.56;5093038;28;20036;-53
2021/10/15 03:59:22;;;;;;;23.08;11.82;;;;;;;12.25;100.00;101383.25;5093378;28;20326;-55
2021/10/15 04:01:47;;;;;;;25.93;11.07;;;;;;;12.30;100.00;101389.69;5094527;28;20028;-55
2021/10/15 04:04:13;;;;;;;18.00;10.32;;;;;;;12.27;100.00;101392.75;5094515;28;20360;-52
2021/10/15 04:06:38;;;;;;;18.83;10.05;;;;;;;12.19;100.00;101385.66;5094438;28;20408;-52
2021/10/15 04:09:04;;;;;;;24.42;11.50;;;;;;;12.19;100.00;101385.66;5094227;28;20028;-54
2021/10/15 04:11:30;;;;;;;21.60;10.88;;;;;;;12.23;100.00;101383.44;5076568;28;20381;-52
2021/10/15 04:13:56;;;;;;;24.73;10.80;;;;;;;12.19;100.00;101377.63;5094400;28;20028;-53
2021/10/15 04:16:22;;;;;;;23.88;10.80;;;;;;;12.26;100.00;101368.81;5093986;28;20416;-51
2021/10/15 04:18:47;;;;;;;22.53;11.47;;;;;;;12.23;100.00;101378.06;5093446;28;20051;-55
2021/10/15 04:21:13;;;;;;;19.08;11.13;;;;;;;12.31;100.00;101367.19;5092815;28;20253;-51
2021/10/15 04:23:39;;;;;;;24.23;11.80;;;;;;;12.28;100.00;101364.09;5092666;28;20517;-52
2021/10/15 04:26:04;;;;;;;21.10;10.93;;;;;;;12.27;100.00;101365.13;5092698;28;20121;-49
2021/10/15 04:28:30;;;;;;;20.65;10.98;;;;;;;12.28;100.00;101366.78;5094070;28;20376;-51
2021/10/15 04:30:55;;;;;;;25.30;11.90;;;;;;;12.80;100.00;101369.19;5094437;28;20036;-50
2021/10/15 04:33:21;;;;;;;27.70;12.27;;;;;;;13.17;100.00;101364.44;5094009;28;20705;-53
2021/10/15 04:35:46;;;;;;;24.35;12.57;;;;;;;12.32;100.00;101358.13;5094106;28;20035;-51
2021/10/15 04:38:12;;;;;;;27.27;13.27;;;;;;;12.37;100.00;101362.91;5094229;28;20362;-52
2021/10/15 04:40:37;;;;;;;27.40;13.33;;;;;;;12.32;100.00;101355.44;5094032;28;20032;-52
2021/10/15 04:43:03;;;;;;;27.80;13.60;;;;;;;12.32;100.00;101357.31;5092769;28;20591;-55
2021/10/15 04:45:29;;;;;;;23.13;12.02;;;;;;;12.41;100.00;101369.53;5093343;28;20036;-52
2021/10/15 04:47:54;;;;;;;25.90;13.27;;;;;;;12.39;100.00;101360.06;5092563;28;20044;-52
2021/10/15 04:50:20;;;;;;;23.85;14.05;;;;;;;12.33;100.00;101356.28;5092152;28;20075;-52
2021/10/15 04:52:46;;;;;;;23.35;14.15;;;;;;;12.41;100.00;101356.13;5093322;28;20103;-50
2021/10/15 04:55:11;;;;;;;30.02;14.30;;;;;;;12.43;100.00;101354.09;5093640;28;20032;-53
2021/10/15 04:57:37;;;;;;;29.90;14.05;;;;;;;12.44;100.00;101354.94;5093589;28;20491;-50
2021/10/15 05:00:08;;;;;;;31.35;14.68;;;;;;;12.50;100.00;101364.88;5092181;28;20127;-53
2021/10/15 05:02:39;;;;;;;21.10;13.10;;;;;;;12.47;100.00;101358.06;5093345;28;20040;-53
2021/10/15 05:05:06;;;;;;;30.43;14.10;;;;;;;12.51;100.00;101358.47;5093389;28;20382;-52
2021/10/15 05:07:32;;;;;;;28.47;15.43;;;;;;;12.55;100.00;101359.75;5093399;28;20563;-54
2021/10/15 05:09:57;;;;;;;27.50;14.80;;;;;;;12.55;100.00;101367.78;5091986;28;20726;-52
2021/10/15 05:12:23;;;;;;;23.33;13.93;;;;;;;12.60;100.00;101359.16;5094013;28;20032;-52
2021/10/15 05:14:49;;;;;;;29.45;14.38;;;;;;;12.69;100.00;101358.00;5091865;28;20031;-49
2021/10/15 05:17:14;;;;;;;23.60;13.55;;;;;;;12.66;100.00;101363.72;5091686;28;20031;-50
2021/10/15 05:19:40;;;;;;;24.25;13.82;;;;;;;12.66;100.00;101361.06;5092966;28;20036;-52
2021/10/15 05:22:06;;;;;;;25.88;15.50;;;;;;;12.70;100.00;101358.81;5091613;28;20051;-52
2021/10/15 05:24:32;;;;;;;26.60;14.23;;;;;;;12.71;100.00;101361.31;5091739;28;20036;-49
2021/10/15 05:26:58;;;;;;;27.73;14.10;;;;;;;12.73;100.00;101364.63;5093622;28;20115;-49
2021/10/15 05:29:23;;;;;;;27.02;14.93;;;;;;;12.76;100.00;101353.50;5092927;28;20190;-50
2021/10/15 05:31:49;;;;;;;25.50;14.20;;;;;;;12.77;100.00;101355.16;5093041;28;20107;-50
2021/10/15 05:34:14;;;;;;;28.40;13.13;;;;;;;12.77;100.00;101352.47;5075080;28;20060;-52
2021/10/15 05:36:40;;;;;;;32.80;14.10;;;;;;;12.77;100.00;101355.16;5093028;28;20051;-50
2021/10/15 05:39:06;;;;;;;32.28;14.52;;;;;;;12.87;100.00;101348.59;5091620;28;20044;-55
2021/10/15 05:41:32;;;;;;;25.60;12.60;;;;;;;12.83;100.00;101342.81;5091339;28;20123;-53
2021/10/15 05:43:57;;;;;;;31.98;14.68;;;;;;;12.82;100.00;101340.31;5092779;28;20127;-49
2021/10/15 05:46:23;;;;;;;28.77;14.63;;;;;;;12.84;100.00;101333.72;5092826;28;20028;-50
2021/10/15 05:48:49;;;;;;;28.93;14.13;;;;;;;12.87;100.00;101338.69;5091491;28;20280;-51
2021/10/15 05:51:14;;;;;;;23.92;14.55;;;;;;;12.84;100.00;101332.88;5092924;28;20027;-51
2021/10/15 05:53:41;;;;;;;30.52;13.43;;;;;;;12.89;100.00;101331.25;5092753;28;20040;-50
2021/10/15 05:58:53;;;;;;;32.50;15.10;;;;;;;12.85;100.00;101345.28;5092834;28;20040;-54
2021/10/15 06:01:23;;;;;;;26.83;14.50;;;;;;;12.90;100.00;101342.81;5092780;28;20270;-50
2021/10/15 06:04:19;;;;;;;31.57;15.00;;;;;;;12.87;100.00;101335.16;5092744;28;20434;-50
2021/10/15 06:14:48;;;;;;;25.13;14.30;;;;;;;12.97;100.00;101345.53;5092462;28;20263;-53
2021/10/15 06:17:17;;;;;;;32.33;14.60;;;;;;;12.99;100.00;101344.31;5092120;28;20256;-53
2021/10/15 06:19:52;;;;;;;25.93;13.37;;;;;;;13.03;100.00;101344.75;5091383;28;20063;-53
2021/10/15 06:22:24;;;;;;;30.40;13.93;;;;;;;13.10;100.00;101337.56;5092312;28;20348;-51
2021/10/15 06:24:51;;;;;;;26.47;14.70;;;;;;;13.15;100.00;101337.78;5092530;28;20339;-49
2021/10/15 06:27:22;;;;;;;26.30;14.30;;;;;;;13.07;100.00;101339.81;5092955;28;20279;-50
2021/10/15 06:29:48;;;;;;;29.27;14.50;;;;;;;13.18;100.00;101340.06;5073830;28;20280;-52
2021/10/15 06:32:15;;;;;;;28.02;14.98;;;;;;;13.18;100.00;101347.31;5093070;28;20253;-52
2021/10/15 06:34:41;;;;;;;29.70;15.17;;;;;;;13.20;100.00;101353.31;5075571;28;20032;-50
2021/10/15 06:37:06;;;;;;;36.37;15.43;;;;;;;13.17;100.00;101354.53;5092761;28;20704;-51
2021/10/15 06:39:32;;;;;;;32.22;17.80;;;;;;;13.13;100.00;101361.31;5092025;28;20035;-49
2021/10/15 06:41:58;;;;;;;28.73;16.70;;;;;;;13.08;100.00;101371.84;5091933;28;20351;-49
2021/10/15 06:44:24;;;;;;;38.92;18.88;;;;;;;13.12;100.00;101378.47;5091699;28;20088;-53
2021/10/15 06:46:49;;;;;;;63.42;24.40;;;;;;;12.97;100.00;101378.59;5091970;28;20318;-51
2021/10/15 06:49:15;;;;;;;60.95;24.45;;;;;;;12.99;100.00;101395.34;5090641;28;20438;-54
2021/10/15 06:51:40;;;;;;;65.57;26.38;;;;;;;12.99;100.00;101391.81;5092597;28;20068;-55
2021/10/15 06:54:06;;;;;;;84.20;26.07;;;;;;;13.05;100.00;101407.97;5092714;28;20127;-54
2021/10/15 06:56:31;;;;;;;53.92;21.85;;;;;;;13.02;100.00;101405.69;5095532;28;20244;-51
2021/10/15 06:58:57;;;;;;;50.65;20.23;;;;;;;12.93;100.00;101417.59;5096021;28;20044;-54
2021/10/15 07:01:23;;;;;;;43.42;21.33;;;;;;;12.90;100.00;101424.19;5094680;28;20457;-54
2021/10/15 07:03:48;;;;;;;34.87;17.43;;;;;;;12.96;100.00;101451.28;5095576;28;20060;-52
2021/10/15 07:06:14;;;;;;;29.48;15.10;;;;;;;12.88;100.00;101454.94;5095793;28;20043;-51
2021/10/15 07:08:39;;;;;;;15.38;8.57;;;;;;;12.85;100.00;101466.91;5095224;28;20040;-51
2021/10/15 07:11:05;;;;;;;18.23;6.65;;;;;;;12.93;100.00;101465.09;5094659;28;20035;-50
2021/10/15 07:13:31;;;;;;;7.35;3.22;;;;;;;12.88;100.00;101462.97;5094527;28;20518;-49
2021/10/15 07:15:57;;;;;;;5.90;3.20;;;;;;;12.81;100.00;101472.84;5094227;28;20036;-52
2021/10/15 07:18:23;;;;;;;8.70;2.92;;;;;;;12.77;100.00;101483.97;5093842;28;20088;-55
2021/10/15 07:20:48;;;;;;;4.35;2.25;;;;;;;12.73;100.00;101488.09;5095651;28;20036;-53
2021/10/15 07:23:15;;;;;;;8.20;2.88;;;;;;;12.65;100.00;101492.75;5095311;28;20119;-49
2021/10/15 07:25:41;;;;;;;5.13;2.53;;;;;;;12.64;100.00;101502.63;5095268;28;20040;-53
2021/10/15 07:28:08;;;;;;;5.30;2.38;;;;;;;13.45;100.00;101504.06;5094744;28;20028;-52
2021/10/15 07:30:33;;;;;;;7.60;2.23;;;;;;;12.89;100.00;101510.28;5094357;28;20055;-53
2021/10/15 07:32:59;;;;;;;4.15;1.90;;;;;;;12.67;100.00;101533.63;5060404;28;20769;-53
2021/10/15 07:35:24;;;;;;;4.70;1.80;;;;;;;12.60;100.00;101542.47;5094007;28;20043;-54
2021/10/15 07:37:50;;;;;;;4.43;1.50;;;;;;;12.51;100.00;101548.97;5076638;28;20047;-49
2021/10/15 07:40:15;;;;;;;3.10;1.67;;;;;;;12.51;100.00;101561.56;5093536;28;20359;-53
2021/10/15 07:42:41;;;;;;;3.33;1.92;;;;;;;12.55;100.00;101544.88;5094859;28;20039;-50
2021/10/15 07:45:08;;;;;;;7.57;1.48;;;;;;;12.52;100.00;101552.47;5093576;28;20036;-53
2021/10/15 07:47:33;;;;;;;2.03;1.13;;;;;;;12.59;100.00;101564.94;5094297;28;20024;-53
2021/10/15 07:49:59;;;;;;;3.42;1.50;;;;;;;12.61;100.00;101565.59;5094504;28;20285;-48
2021/10/15 07:52:24;;;;;;;4.43;1.40;;;;;;;12.61;100.00;101559.38;5093600;28;20024;-52
2021/10/15 07:54:50;;;;;;;8.77;1.60;;;;;;;12.62;100.00;101563.72;5094429;28;20031;-51
2021/10/15 07:57:16;;;;;;;4.03;1.23;;;;;;;12.60;100.00;101580.03;5094950;28;20028;-51
2021/10/15 07:59:42;;;;;;;4.45;1.15;;;;;;;12.44;100.00;101578.38;5094712;28;20120;-51
2021/10/15 08:02:09;;;;;;;4.07;1.40;;;;;;;12.44;100.00;101583.75;5094234;28;20434;-50
2021/10/15 08:04:35;;;;;;;8.30;1.67;;;;;;;12.47;100.00;101595.97;5093991;28;20090;-53
2021/10/15 08:07:02;;;;;;;6.00;1.45;;;;;;;12.40;100.00;101585.16;5094495;28;20597;-52
2021/10/15 08:09:28;;;;;;;5.57;1.70;;;;;;;12.53;100.00;101592.53;5094082;28;20043;-54
2021/10/15 08:11:54;;;;;;;5.18;1.30;;;;;;;12.56;100.00;101599.38;5094149;28;20729;-53
2021/10/15 08:14:20;;;;;;;11.50;2.60;;;;;;;12.61;100.00;101613.03;5094796;28;20036;-54
2021/10/15 08:16:46;;;;;;;10.40;1.73;;;;;;;12.56;100.00;101615.47;5092968;28;20097;-48
2021/10/15 08:19:12;;;;;;;8.38;1.52;;;;;;;12.58;100.00;101624.16;5093964;28;20435;-55
2021/10/15 08:21:37;;;;;;;8.48;1.30;;;;;;;12.53;100.00;101622.03;5093995;28;20039;-54
2021/10/15 08:24:03;;;;;;;10.05;1.92;;;;;;;12.62;100.00;101617.38;5094011;28;20032;-51
2021/10/15 08:26:29;;;;;;;11.25;2.13;;;;;;;12.72;100.00;101622.44;5092596;28;20094;-58
2021/10/15 08:28:59;;;;;;;10.55;2.10;;;;;;;12.76;100.00;101627.25;5092934;28;20032;-51
2021/10/15 08:31:26;;;;;;;8.90;2.70;;;;;;;12.82;100.00;101627.50;5094510;28;20060;-60
2021/10/15 08:33:52;;;;;;;15.47;2.23;;;;;;;12.83;100.00;101615.75;5092695;28;20275;-55
2021/10/15 08:36:17;;;;;;;6.28;1.20;;;;;;;12.72;100.00;101620.59;5094880;28;20734;-54
2021/10/15 08:38:43;;;;;;;10.40;1.50;;;;;;;12.72;100.00;101627.81;5092560;28;20380;-54
2021/10/15 08:41:10;;;;;;;8.63;1.60;;;;;;;12.83;100.00;101632.69;5093798;28;20122;-53
2021/10/15 08:43:38;;;;;;;8.63;1.90;;;;;;;12.82;100.00;101638.25;5093999;28;20024;-48
2021/10/15 08:46:05;;;;;;;11.57;1.67;;;;;;;12.76;100.00;101643.34;5093763;28;20351;-51
2021/10/15 08:48:31;;;;;;;9.97;1.30;;;;;;;12.73;100.00;101633.00;5093696;28;20718;-53
2021/10/15 08:50:57;;;;;;;15.25;1.52;;;;;;;12.92;100.00;101652.19;5093558;28;20283;-51
2021/10/15 08:53:23;;;;;;;12.20;1.70;;;;;;;12.85;100.00;101649.44;5093152;28;20036;-53
2021/10/15 08:55:48;;;;;;;12.40;1.90;;;;;;;12.90;100.00;101654.22;5093407;28;20272;-52
2021/10/15 08:58:14;;;;;;;11.70;1.88;;;;;;;12.96;100.00;101653.47;5093563;28;20458;-54
2021/10/15 09:00:40;;;;;;;6.13;1.30;;;;;;;12.90;100.00;101649.69;5093484;28;20468;-53
2021/10/15 09:03:21;;;;;;;5.45;1.45;;;;;;;13.01;100.00;101653.72;5092050;28;20252;-52
2021/10/15 09:06:00;;;;;;;8.03;1.67;;;;;;;13.08;100.00;101661.00;5093582;28;20153;-56
2021/10/15 09:08:41;;;;;;;10.10;1.57;;;;;;;13.01;100.00;101661.78;5093548;28;20284;-52
2021/10/15 09:11:42;;;;;;;12.70;1.70;;;;;;;13.10;100.00;101658.94;5092519;28;20304;-54
2021/10/15 09:14:15;;;;;;;6.50;1.80;;;;;;;13.99;100.00;101662.13;5091396;28;20410;-51
2021/10/15 09:16:57;;;;;;;12.63;2.30;;;;;;;14.83;100.00;101664.78;5092511;28;20280;-52
2021/10/15 09:19:28;;;;;;;10.53;2.03;;;;;;;16.19;100.00;101657.28;5091889;28;20268;-56
2021/10/15 09:22:23;;;;;;;5.20;1.37;;;;;;;16.08;100.00;101652.53;5093895;28;20039;-52
2021/10/15 09:24:53;;;;;;;4.73;1.43;;;;;;;15.98;100.00;101668.34;5093402;28;20477;-51
2021/10/15 09:27:26;;;;;;;4.83;1.30;;;;;;;15.77;100.00;101684.53;5093042;28;20116;-53
2021/10/15 09:30:05;;;;;;;5.23;1.40;;;;;;;15.51;100.00;101684.53;5091683;28;20039;-51
2021/10/15 09:32:34;;;;;;;7.67;1.47;;;;;;;15.34;100.00;101685.78;5092792;28;20032;-51
2021/10/15 09:35:00;;;;;;;10.30;2.30;;;;;;;15.03;100.00;101686.38;5091628;28;20368;-54
2021/10/15 09:37:28;;;;;;;6.28;1.50;;;;;;;15.39;100.00;101695.97;5091657;28;20048;-55
2021/10/15 09:40:18;;;;;;;11.73;2.33;;;;;;;17.20;100.00;101697.28;5092606;28;20123;-50
2021/10/15 09:42:45;;;;;;;12.70;2.20;;;;;;;18.48;100.00;101690.66;5092840;28;20032;-51
2021/10/15 09:45:16;;;;;;;11.30;2.23;;;;;;;19.55;100.00;101687.44;5092781;28;20039;-53
2021/10/15 09:47:47;;;;;;;9.83;1.70;;;;;;;20.65;100.00;101696.03;5093296;28;20035;-51
2021/10/15 09:50:15;;;;;;;7.67;1.57;;;;;;;20.46;100.00;101697.00;5091340;28;20028;-54
2021/10/15 09:52:51;;;;;;;10.23;1.93;;;;;;;20.75;100.00;101704.34;5091283;28;20369;-51
2021/10/15 09:55:28;;;;;;;9.65;1.60;;;;;;;20.37;100.00;101703.91;5092900;28;20043;-52
2021/10/15 09:57:55;;;;;;;;;;;;;;;21.36;100.00;101703.81;5091661;28;20043;-50
2021/10/15 10:00:30;;;;;;;9.65;1.58;;;;;;;21.78;100.00;101710.75;5092190;28;19904;-51
2021/10/15 10:02:56;;;;;;;7.70;1.27;;;;;;;21.53;100.00;101709.25;5091165;28;20032;-54
2021/10/15 10:05:22;;;;;;;;;;;;;;;21.70;100.00;101716.63;5093106;28;20031;-51
2021/10/15 10:07:51;;;;;;;19.40;2.10;;;;;;;21.75;100.00;101725.66;5090997;28;20242;-54
2021/10/15 10:10:25;;;;;;;6.97;1.50;;;;;;;22.90;100.00;101717.03;5092469;28;20414;-54
2021/10/15 10:12:52;;;;;;;10.30;2.20;;;;;;;22.49;100.00;101720.94;5093105;28;20036;-52
2021/10/15 10:15:23;;;;;;;10.33;1.67;;;;;;;22.97;100.00;101725.00;5092726;28;20103;-55
2021/10/15 10:17:55;;;;;;;24.05;2.45;;;;;;;22.61;100.00;101733.63;5092464;28;20104;-50
2021/10/15 10:20:28;;;;;;;10.20;1.70;;;;;;;23.01;100.00;101724.22;5091255;28;20060;-51
2021/10/15 10:23:18;;;;;;;7.60;2.10;;;;;;;23.87;100.00;101734.44;5090877;28;20043;-54
2021/10/15 10:25:44;;;;;;;5.97;1.40;;;;;;;24.61;100.00;101740.00;5083755;28;20042;-53
2021/10/15 10:28:14;;;;;;;11.30;1.75;;;;;;;24.75;100.00;101734.88;5093252;28;20086;-53
2021/10/15 10:30:44;;;;;;;10.80;1.75;;;;;;;24.13;100.00;101742.84;5095834;28;20497;-52
2021/10/15 10:33:10;;;;;;;10.52;2.05;;;;;;;25.56;100.00;101745.38;5096681;28;20044;-53
2021/10/15 10:35:35;;;;;;;3.58;1.30;;;;;;;24.88;100.00;101749.94;5078404;28;20084;-55
2021/10/15 10:38:19;;;;;;;9.52;1.80;;;;;;;25.65;100.00;101756.59;5095674;28;20036;-55
2021/10/15 10:41:00;;;;;;;4.28;1.08;;;;;;;23.31;100.00;101747.44;5095770;28;20044;-52
2021/10/15 10:43:34;;;;;;;6.90;1.70;;;;;;;24.65;100.00;101751.25;5096715;28;20089;-55
2021/10/15 10:46:08;;;;;;;4.90;1.38;;;;;;;25.56;81.10;101757.13;5096872;28;20044;-53
2021/10/15 10:48:53;;;;;;;4.22;1.17;;;;;;;26.35;70.70;101764.13;5095720;28;20117;-52
2021/10/15 10:51:29;;;;;;;7.93;1.50;;;;;;;26.31;81.05;101763.03;5095854;28;20043;-52
2021/10/15 10:54:07;;;;;;;3.33;1.58;;;;;;;25.89;87.05;101771.34;5095991;28;20085;-54
2021/10/15 10:56:41;;;;;;;10.75;1.83;;;;;;;25.30;76.50;101764.53;5096502;28;20054;-55
2021/10/15 10:59:22;;;;;;;9.70;2.40;;;;;;;25.19;89.63;101766.44;5094724;28;20047;-54
2021/10/15 11:02:00;;;;;;;8.23;2.03;;;;;;;27.07;66.15;101767.59;5096046;28;20463;-55
2021/10/15 11:04:58;;;;;;;11.05;1.55;;;;;;;24.90;75.34;101770.47;5096449;28;20131;-54
2021/10/15 11:07:25;;;;;;;7.95;1.55;;;;;;;25.39;82.42;101765.59;5062892;28;20052;-54
2021/10/15 11:10:00;;;;;;;7.63;2.17;;;;;;;25.64;75.01;101758.50;5095887;28;20107;-53
2021/10/15 11:12:28;;;;;;;7.32;1.90;;;;;;;26.42;72.28;101774.78;5095755;28;20097;-52
2021/10/15 11:15:04;;;;;;;8.70;1.38;;;;;;;27.18;69.91;101775.47;5095995;28;20518;-53
2021/10/15 11:17:34;;;;;;;4.90;1.17;;;;;;;28.34;56.43;101779.59;5095788;28;20032;-53
2021/10/15 11:20:10;;;;;;;4.95;1.38;;;;;;;29.19;56.15;101771.56;5094183;28;20108;-53
2021/10/15 11:22:35;;;;;;;;;;;;;;;27.13;51.15;101781.00;5096291;28;20460;-54